sensor_id;sensor_type;location;lat;lon;timestamp;pressure;altitude;pressure_sealevel;temperature;humidity
55550;BME280;41397;49.972;18.944;2023-04-06T00:00:13;102251.79;;;6.08;43.19
55550;BME280;41397;49.972;18.944;2023-04-06T00:03:21;102249.16;;;6.07;43.13
55550;BME280;41397;49.972;18.944;2023-04-06T00:06:23;102255.59;;;6.04;43.00
55550;BME280;41397;49.972;18.944;2023-04-06T00:09:24;102241.14;;;6.04;43.04
55550;BME280;41397;49.972;18.944;2023-04-06T00:12:26;102250.16;;;6.04;43.04
55550;BME280;41397;49.972;18.944;2023-04-06T00:15:27;102250.91;;;6.08;43.22
55550;BME280;41397;49.972;18.944;2023-04-06T00:18:29;102242.73;;;6.09;43.62
55550;BME280;41397;49.972;18.944;2023-04-06T00:21:31;102251.79;;;6.08;43.31
55550;BME280;41397;49.972;18.944;2023-04-06T00:24:33;102238.42;;;6.04;43.36
55550;BME280;41397;49.972;18.944;2023-04-06T00:27:35;102239.35;;;6.03;43.45
55550;BME280;41397;49.972;18.944;2023-04-06T00:30:36;102234.91;;;6.00;43.44
55550;BME280;41397;49.972;18.944;2023-04-06T00:33:38;102231.41;;;5.98;43.72
55550;BME280;41397;49.972;18.944;2023-04-06T00:36:39;102237.84;;;5.95;43.83
55550;BME280;41397;49.972;18.944;2023-04-06T00:39:42;102230.78;;;5.90;44.00
55550;BME280;41397;49.972;18.944;2023-04-06T00:42:45;102242.66;;;5.87;44.35
55550;BME280;41397;49.972;18.944;2023-04-06T00:45:46;102231.80;;;5.87;44.39
55550;BME280;41397;49.972;18.944;2023-04-06T00:48:48;102233.79;;;5.82;44.34
55550;BME280;41397;49.972;18.944;2023-04-06T00:51:49;102234.67;;;5.83;44.38
55550;BME280;41397;49.972;18.944;2023-04-06T00:54:51;102228.61;;;5.76;44.54
55550;BME280;41397;49.972;18.944;2023-04-06T00:57:53;102241.27;;;5.75;44.74
55550;BME280;41397;49.972;18.944;2023-04-06T01:00:55;102238.68;;;5.72;44.81
55550;BME280;41397;49.972;18.944;2023-04-06T01:03:57;102240.59;;;5.70;44.92
55550;BME280;41397;49.972;18.944;2023-04-06T01:06:59;102245.23;;;5.67;44.85
55550;BME280;41397;49.972;18.944;2023-04-06T01:10:00;102239.16;;;5.60;45.36
55550;BME280;41397;49.972;18.944;2023-04-06T01:13:03;102248.18;;;5.61;45.15
55550;BME280;41397;49.972;18.944;2023-04-06T01:16:05;102242.80;;;5.59;45.21
55550;BME280;41397;49.972;18.944;2023-04-06T01:19:13;102240.40;;;5.51;45.69
55550;BME280;41397;49.972;18.944;2023-04-06T01:22:17;102234.30;;;5.45;45.54
55550;BME280;41397;49.972;18.944;2023-04-06T01:25:20;102241.45;;;5.47;45.83
55550;BME280;41397;49.972;18.944;2023-04-06T01:28:21;102244.32;;;5.43;45.87
55550;BME280;41397;49.972;18.944;2023-04-06T01:31:24;102235.30;;;5.42;45.32
55550;BME280;41397;49.972;18.944;2023-04-06T01:34:27;102244.32;;;5.43;45.81
55550;BME280;41397;49.972;18.944;2023-04-06T01:37:28;102244.32;;;5.43;45.92
55550;BME280;41397;49.972;18.944;2023-04-06T01:40:37;102232.46;;;5.45;45.97
55550;BME280;41397;49.972;18.944;2023-04-06T01:43:38;102236.09;;;5.46;45.75
55550;BME280;41397;49.972;18.944;2023-04-06T01:46:40;102239.80;;;5.43;46.07
55550;BME280;41397;49.972;18.944;2023-04-06T01:49:42;102239.85;;;5.42;46.32
55550;BME280;41397;49.972;18.944;2023-04-06T01:52:45;102235.30;;;5.42;46.20
55550;BME280;41397;49.972;18.944;2023-04-06T01:55:47;102228.95;;;5.43;46.14
55550;BME280;41397;49.972;18.944;2023-04-06T01:58:49;102234.38;;;5.43;46.14
55550;BME280;41397;49.972;18.944;2023-04-06T02:01:50;102228.95;;;5.43;46.33
55550;BME280;41397;49.972;18.944;2023-04-06T02:04:53;102231.66;;;5.43;46.32
55550;BME280;41397;49.972;18.944;2023-04-06T02:07:55;102228.04;;;5.43;46.37
55550;BME280;41397;49.972;18.944;2023-04-06T02:10:57;102229.95;;;5.41;46.40
55550;BME280;41397;49.972;18.944;2023-04-06T02:13:59;102229.11;;;5.39;46.21
55550;BME280;41397;49.972;18.944;2023-04-06T02:17:02;102230.07;;;5.38;46.57
55550;BME280;41397;49.972;18.944;2023-04-06T02:20:03;102234.58;;;5.37;46.48
55550;BME280;41397;49.972;18.944;2023-04-06T02:23:11;102223.92;;;5.32;46.91
55550;BME280;41397;49.972;18.944;2023-04-06T02:26:13;102231.18;;;5.32;47.00
55550;BME280;41397;49.972;18.944;2023-04-06T02:29:16;102232.26;;;5.26;46.99
55550;BME280;41397;49.972;18.944;2023-04-06T02:32:17;102227.86;;;5.24;47.09
55550;BME280;41397;49.972;18.944;2023-04-06T02:35:19;102223.37;;;5.23;47.10
55550;BME280;41397;49.972;18.944;2023-04-06T02:38:21;102222.45;;;5.24;47.34
55550;BME280;41397;49.972;18.944;2023-04-06T02:41:22;102218.81;;;5.23;47.64
55550;BME280;41397;49.972;18.944;2023-04-06T02:44:24;102219.73;;;5.24;47.32
55550;BME280;41397;49.972;18.944;2023-04-06T02:47:25;102223.37;;;5.23;47.53
55550;BME280;41397;49.972;18.944;2023-04-06T02:50:35;102222.48;;;5.22;47.98
55550;BME280;41397;49.972;18.944;2023-04-06T02:53:36;102218.05;;;5.20;47.78
55550;BME280;41397;49.972;18.944;2023-04-06T02:56:38;102222.48;;;5.22;47.61
55550;BME280;41397;49.972;18.944;2023-04-06T02:59:39;102220.80;;;5.18;47.89
55550;BME280;41397;49.972;18.944;2023-04-06T03:02:41;102223.48;;;5.20;47.89
55550;BME280;41397;49.972;18.944;2023-04-06T03:05:42;102233.36;;;5.21;47.91
55550;BME280;41397;49.972;18.944;2023-04-06T03:08:44;102231.77;;;5.15;47.87
55550;BME280;41397;49.972;18.944;2023-04-06T03:11:47;102231.84;;;5.14;48.00
55550;BME280;41397;49.972;18.944;2023-04-06T03:14:48;102235.43;;;5.14;48.22
55550;BME280;41397;49.972;18.944;2023-04-06T03:17:50;102232.88;;;5.09;48.35
55550;BME280;41397;49.972;18.944;2023-04-06T03:20:52;102227.69;;;5.03;48.35
55550;BME280;41397;49.972;18.944;2023-04-06T03:23:56;102228.75;;;4.99;48.67
55550;BME280;41397;49.972;18.944;2023-04-06T03:26:58;102231.49;;;4.98;48.46
55550;BME280;41397;49.972;18.944;2023-04-06T03:30:01;102239.67;;;4.96;48.67
55550;BME280;41397;49.972;18.944;2023-04-06T03:33:03;102237.07;;;4.93;48.32
55550;BME280;41397;49.972;18.944;2023-04-06T03:36:05;102239.97;;;4.88;48.70
55550;BME280;41397;49.972;18.944;2023-04-06T03:39:07;102246.30;;;4.87;49.01
55550;BME280;41397;49.972;18.944;2023-04-06T03:42:09;102247.37;;;4.83;48.92
55550;BME280;41397;49.972;18.944;2023-04-06T03:45:11;102245.54;;;4.84;49.09
55550;BME280;41397;49.972;18.944;2023-04-06T03:48:14;102233.09;;;4.78;49.19
55550;BME280;41397;49.972;18.944;2023-04-06T03:51:16;102238.40;;;4.81;49.17
55550;BME280;41397;49.972;18.944;2023-04-06T03:54:18;102250.27;;;4.77;49.23
55550;BME280;41397;49.972;18.944;2023-04-06T03:57:20;102248.58;;;4.75;49.41
55550;BME280;41397;49.972;18.944;2023-04-06T04:00:30;102243.96;;;4.77;49.18
55550;BME280;41397;49.972;18.944;2023-04-06T04:03:33;102245.06;;;4.71;49.59
55550;BME280;41397;49.972;18.944;2023-04-06T04:06:35;102251.36;;;4.72;49.47
55550;BME280;41397;49.972;18.944;2023-04-06T04:09:37;102253.05;;;4.76;49.65
55550;BME280;41397;49.972;18.944;2023-04-06T04:12:39;102258.47;;;4.76;49.70
55550;BME280;41397;49.972;18.944;2023-04-06T04:15:40;102253.05;;;4.76;49.58
55550;BME280;41397;49.972;18.944;2023-04-06T04:18:42;102252.94;;;4.79;49.85
55550;BME280;41397;49.972;18.944;2023-04-06T04:21:46;102250.19;;;4.80;49.70
55550;BME280;41397;49.972;18.944;2023-04-06T04:24:48;102249.20;;;4.83;49.65
55550;BME280;41397;49.972;18.944;2023-04-06T04:27:50;102254.55;;;4.84;49.74
55550;BME280;41397;49.972;18.944;2023-04-06T04:30:51;102257.23;;;4.86;49.89
55550;BME280;41397;49.972;18.944;2023-04-06T04:33:53;102252.67;;;4.86;49.86
55550;BME280;41397;49.972;18.944;2023-04-06T04:36:55;102255.17;;;4.93;49.58
55550;BME280;41397;49.972;18.944;2023-04-06T04:39:56;102256.85;;;4.97;49.76
55550;BME280;41397;49.972;18.944;2023-04-06T04:42:58;102256.85;;;4.97;50.06
55550;BME280;41397;49.972;18.944;2023-04-06T04:46:01;102268.51;;;4.99;49.96
55550;BME280;41397;49.972;18.944;2023-04-06T04:49:05;102264.15;;;4.95;50.05
55550;BME280;41397;49.972;18.944;2023-04-06T04:52:06;102261.36;;;4.96;50.21
55550;BME280;41397;49.972;18.944;2023-04-06T04:55:08;102271.39;;;4.94;50.12
55550;BME280;41397;49.972;18.944;2023-04-06T04:58:11;102263.20;;;4.96;49.97
55550;BME280;41397;49.972;18.944;2023-04-06T05:01:18;102252.05;;;5.05;50.03
55550;BME280;41397;49.972;18.944;2023-04-06T05:04:22;102263.39;;;5.16;50.03
55550;BME280;41397;49.972;18.944;2023-04-06T05:07:24;102260.41;;;5.24;49.94
55550;BME280;41397;49.972;18.944;2023-04-06T05:10:26;102263.62;;;5.35;49.51
55550;BME280;41397;49.972;18.944;2023-04-06T05:13:29;102259.59;;;5.45;49.66
55550;BME280;41397;49.972;18.944;2023-04-06T05:16:30;102257.48;;;5.53;48.93
55550;BME280;41397;49.972;18.944;2023-04-06T05:33:18;102249.16;;;6.07;48.08
55550;BME280;41397;49.972;18.944;2023-04-06T05:43:36;102242.35;;;6.40;46.65
55550;BME280;41397;49.972;18.944;2023-04-06T05:46:38;102247.61;;;6.45;46.78
55550;BME280;41397;49.972;18.944;2023-04-06T05:49:41;102241.46;;;6.62;46.88
55550;BME280;41397;49.972;18.944;2023-04-06T05:52:48;102244.15;;;6.84;46.43
55550;BME280;41397;49.972;18.944;2023-04-06T05:55:49;102245.21;;;7.02;46.10
55550;BME280;41397;49.972;18.944;2023-04-06T05:59:01;102235.39;;;6.98;45.39
55550;BME280;41397;49.972;18.944;2023-04-06T06:02:05;102234.64;;;7.15;45.73
55550;BME280;41397;49.972;18.944;2023-04-06T06:05:32;102236.69;;;7.30;45.48
55550;BME280;41397;49.972;18.944;2023-04-06T06:12:12;102234.05;;;7.68;43.92
55550;BME280;41397;49.972;18.944;2023-04-06T06:18:58;102228.94;;;7.99;43.49
55550;BME280;41397;49.972;18.944;2023-04-06T06:22:11;102229.81;;;8.19;42.94
55550;BME280;41397;49.972;18.944;2023-04-06T06:28:55;102230.67;;;8.38;42.36
55550;BME280;41397;49.972;18.944;2023-04-06T06:39:04;102229.29;;;8.49;41.57
55550;BME280;41397;49.972;18.944;2023-04-06T06:42:08;102232.52;;;8.57;41.58
55550;BME280;41397;49.972;18.944;2023-04-06T06:45:26;102235.24;;;8.57;41.38
55550;BME280;41397;49.972;18.944;2023-04-06T06:52:26;102227.50;;;8.84;40.15
55550;BME280;41397;49.972;18.944;2023-04-06T06:59:22;102240.07;;;8.86;39.36
55550;BME280;41397;49.972;18.944;2023-04-06T07:02:24;102236.30;;;8.89;39.53
55550;BME280;41397;49.972;18.944;2023-04-06T07:05:36;102238.97;;;8.91;39.06
55550;BME280;41397;49.972;18.944;2023-04-06T07:08:57;102242.88;;;9.02;39.63
55550;BME280;41397;49.972;18.944;2023-04-06T07:11:59;102249.16;;;9.04;39.22
55550;BME280;41397;49.972;18.944;2023-04-06T07:15:03;102247.63;;;8.99;39.92
55550;BME280;41397;49.972;18.944;2023-04-06T07:18:05;102250.13;;;9.03;39.50
55550;BME280;41397;49.972;18.944;2023-04-06T07:21:07;102250.59;;;8.94;39.28
55550;BME280;41397;49.972;18.944;2023-04-06T07:24:08;102246.82;;;8.97;38.57
55550;BME280;41397;49.972;18.944;2023-04-06T07:27:10;102248.45;;;9.01;38.58
55550;BME280;41397;49.972;18.944;2023-04-06T07:30:12;102250.59;;;8.94;38.55
55550;BME280;41397;49.972;18.944;2023-04-06T07:33:13;102245.38;;;9.07;39.21
55550;BME280;41397;49.972;18.944;2023-04-06T07:36:20;102250.35;;;9.16;37.93
55550;BME280;41397;49.972;18.944;2023-04-06T07:39:28;102245.84;;;9.32;38.58
55550;BME280;41397;49.972;18.944;2023-04-06T07:42:30;102247.06;;;9.44;37.88
55550;BME280;41397;49.972;18.944;2023-04-06T07:56:05;102224.65;;;10.36;36.42
55550;BME280;41397;49.972;18.944;2023-04-06T08:13:06;102236.70;;;10.63;34.42
55550;BME280;41397;49.972;18.944;2023-04-06T08:19:58;102219.35;;;10.95;34.35
55550;BME280;41397;49.972;18.944;2023-04-06T08:26:36;102227.19;;;10.55;34.54
55550;BME280;41397;49.972;18.944;2023-04-06T08:36:40;102220.83;;;10.70;34.79
55550;BME280;41397;49.972;18.944;2023-04-06T08:39:49;102208.73;;;10.58;34.51
55550;BME280;41397;49.972;18.944;2023-04-06T08:46:34;102200.08;;;10.66;34.35
55550;BME280;41397;49.972;18.944;2023-04-06T08:53:23;102203.93;;;10.48;34.93
55550;BME280;41397;49.972;18.944;2023-04-06T09:00:13;102203.31;;;10.42;35.20
55550;BME280;41397;49.972;18.944;2023-04-06T09:06:55;102197.89;;;10.25;34.85
55550;BME280;41397;49.972;18.944;2023-04-06T09:10:13;102195.55;;;10.35;35.30
55550;BME280;41397;49.972;18.944;2023-04-06T09:13:16;102190.22;;;10.00;35.45
55550;BME280;41397;49.972;18.944;2023-04-06T09:16:18;102182.84;;;10.18;35.21
55550;BME280;41397;49.972;18.944;2023-04-06T09:19:32;102178.27;;;10.34;35.40
55550;BME280;41397;49.972;18.944;2023-04-06T09:22:45;102177.98;;;10.23;35.33
55550;BME280;41397;49.972;18.944;2023-04-06T09:25:46;102187.32;;;10.19;35.01
55550;BME280;41397;49.972;18.944;2023-04-06T09:28:55;102181.34;;;10.12;35.59
55550;BME280;41397;49.972;18.944;2023-04-06T09:32:05;102180.28;;;10.31;35.50
55550;BME280;41397;49.972;18.944;2023-04-06T09:45:30;102163.19;;;10.27;35.83
55550;BME280;41397;49.972;18.944;2023-04-06T09:48:34;102168.71;;;10.41;35.45
55550;BME280;41397;49.972;18.944;2023-04-06T09:51:46;102170.01;;;10.50;35.65
55550;BME280;41397;49.972;18.944;2023-04-06T09:54:53;102165.69;;;10.62;35.48
55550;BME280;41397;49.972;18.944;2023-04-06T10:01:30;102170.40;;;10.74;34.98
55550;BME280;41397;49.972;18.944;2023-04-06T10:43:11;102131.95;;;11.77;34.03
55550;BME280;41397;49.972;18.944;2023-04-06T10:46:13;102126.38;;;11.65;33.78
55550;BME280;41397;49.972;18.944;2023-04-06T10:49:20;102125.30;;;11.67;34.16
55550;BME280;41397;49.972;18.944;2023-04-06T10:52:22;102112.30;;;11.71;33.78
55550;BME280;41397;49.972;18.944;2023-04-06T10:55:26;102119.74;;;11.69;33.58
55550;BME280;41397;49.972;18.944;2023-04-06T10:58:28;102121.91;;;11.49;33.99
55550;BME280;41397;49.972;18.944;2023-04-06T11:01:34;102123.95;;;11.31;33.95
55550;BME280;41397;49.972;18.944;2023-04-06T11:04:35;102122.96;;;11.18;34.00
55550;BME280;41397;49.972;18.944;2023-04-06T11:07:44;102123.09;;;11.17;34.24
55550;BME280;41397;49.972;18.944;2023-04-06T11:10:45;102114.48;;;11.23;34.62
55550;BME280;41397;49.972;18.944;2023-04-06T11:13:52;102112.04;;;11.32;34.77
55550;BME280;41397;49.972;18.944;2023-04-06T11:16:53;102118.40;;;11.19;34.74
55550;BME280;41397;49.972;18.944;2023-04-06T11:20:04;102114.59;;;11.21;35.03
55550;BME280;41397;49.972;18.944;2023-04-06T11:26:28;102123.16;;;11.15;34.79
55550;BME280;41397;49.972;18.944;2023-04-06T11:36:18;102109.59;;;11.14;34.91
55550;BME280;41397;49.972;18.944;2023-04-06T11:39:25;102100.18;;;11.18;34.59
55550;BME280;41397;49.972;18.944;2023-04-06T11:42:42;102106.54;;;11.04;34.46
55550;BME280;41397;49.972;18.944;2023-04-06T11:46:03;102098.52;;;11.01;34.80
55550;BME280;41397;49.972;18.944;2023-04-06T11:49:40;102093.65;;;11.06;35.32
55550;BME280;41397;49.972;18.944;2023-04-06T11:52:42;102093.36;;;11.10;35.22
55550;BME280;41397;49.972;18.944;2023-04-06T11:55:47;102089.44;;;11.15;35.49
55550;BME280;41397;49.972;18.944;2023-04-06T11:58:49;102080.06;;;11.19;35.30
55550;BME280;41397;49.972;18.944;2023-04-06T12:01:50;102087.76;;;11.26;34.84
55550;BME280;41397;49.972;18.944;2023-04-06T12:04:54;102085.71;;;11.16;47.87
55550;BME280;41397;49.972;18.944;2023-04-06T12:07:56;102092.45;;;11.53;47.31
55550;BME280;41397;49.972;18.944;2023-04-06T12:11:00;102086.27;;;12.05;52.89
55550;BME280;41397;49.972;18.944;2023-04-06T12:14:01;102084.34;;;12.47;48.25
55550;BME280;41397;49.972;18.944;2023-04-06T12:17:06;102070.33;;;12.90;48.14
55550;BME280;41397;49.972;18.944;2023-04-06T12:20:08;102070.14;;;13.31;46.74
55550;BME280;41397;49.972;18.944;2023-04-06T12:23:09;102073.93;;;13.54;46.76
55550;BME280;41397;49.972;18.944;2023-04-06T12:26:11;102080.26;;;13.81;45.11
55550;BME280;41397;49.972;18.944;2023-04-06T12:29:14;102071.25;;;14.03;39.68
55550;BME280;41397;49.972;18.944;2023-04-06T12:32:16;102066.34;;;14.19;43.13
55550;BME280;41397;49.972;18.944;2023-04-06T12:35:18;102067.79;;;14.36;42.46
55550;BME280;41397;49.972;18.944;2023-04-06T12:38:21;102067.64;;;14.37;41.95
55550;BME280;41397;49.972;18.944;2023-04-06T12:41:23;102058.45;;;14.50;40.46
55550;BME280;41397;49.972;18.944;2023-04-06T12:44:25;102057.69;;;14.48;42.59
55550;BME280;41397;49.972;18.944;2023-04-06T12:47:27;102056.46;;;14.52;38.54
55550;BME280;41397;49.972;18.944;2023-04-06T12:50:29;102051.88;;;14.63;43.87
55550;BME280;41397;49.972;18.944;2023-04-06T12:53:32;102053.22;;;14.23;37.27
55550;BME280;41397;49.972;18.944;2023-04-06T12:56:34;102057.46;;;14.27;40.87
55550;BME280;41397;49.972;18.944;2023-04-06T12:59:36;102053.61;;;14.29;41.46
55550;BME280;41397;49.972;18.944;2023-04-06T13:02:38;102053.01;;;14.37;38.04
55550;BME280;41397;49.972;18.944;2023-04-06T13:05:51;102058.66;;;14.35;41.37
55550;BME280;41397;49.972;18.944;2023-04-06T13:08:53;102057.95;;;14.20;39.67
55550;BME280;41397;49.972;18.944;2023-04-06T13:11:54;102052.38;;;13.85;35.86
55550;BME280;41397;49.972;18.944;2023-04-06T13:14:57;102053.05;;;13.89;42.03
55550;BME280;41397;49.972;18.944;2023-04-06T13:17:59;102058.38;;;14.03;40.79
55550;BME280;41397;49.972;18.944;2023-04-06T13:21:07;102061.29;;;14.13;42.66
55550;BME280;41397;49.972;18.944;2023-04-06T13:24:11;102047.42;;;14.14;39.37
55550;BME280;41397;49.972;18.944;2023-04-06T13:27:12;102053.16;;;14.35;42.01
55550;BME280;41397;49.972;18.944;2023-04-06T13:30:14;102045.52;;;14.39;42.46
55550;BME280;41397;49.972;18.944;2023-04-06T13:33:16;102048.45;;;14.49;38.84
55550;BME280;41397;49.972;18.944;2023-04-06T13:36:18;102052.41;;;14.44;37.57
55550;BME280;41397;49.972;18.944;2023-04-06T13:39:23;102048.20;;;14.16;35.58
55550;BME280;41397;49.972;18.944;2023-04-06T13:42:34;102050.51;;;13.62;36.25
55550;BME280;41397;49.972;18.944;2023-04-06T13:45:41;102055.87;;;13.26;37.36
55550;BME280;41397;49.972;18.944;2023-04-06T13:48:49;102053.19;;;12.74;38.03
55550;BME280;41397;49.972;18.944;2023-04-06T13:51:57;102056.43;;;12.40;38.47
55550;BME280;41397;49.972;18.944;2023-04-06T13:55:24;102046.38;;;12.14;39.95
55550;BME280;41397;49.972;18.944;2023-04-06T13:58:38;102054.70;;;11.85;40.69
55550;BME280;41397;49.972;18.944;2023-04-06T14:01:44;102050.80;;;11.75;41.65
55550;BME280;41397;49.972;18.944;2023-04-06T14:04:45;102053.22;;;11.52;42.43
55550;BME280;41397;49.972;18.944;2023-04-06T14:07:47;102047.15;;;11.47;43.56
55550;BME280;41397;49.972;18.944;2023-04-06T14:10:48;102047.77;;;11.38;43.95
55550;BME280;41397;49.972;18.944;2023-04-06T14:13:50;102053.55;;;11.19;44.48
55550;BME280;41397;49.972;18.944;2023-04-06T14:16:52;102051.59;;;11.07;44.50
55550;BME280;41397;49.972;18.944;2023-04-06T14:19:55;102048.95;;;10.91;45.61
55550;BME280;41397;49.972;18.944;2023-04-06T14:23:00;102048.65;;;10.81;46.55
55550;BME280;41397;49.972;18.944;2023-04-06T14:26:07;102054.60;;;10.74;47.00
55550;BME280;41397;49.972;18.944;2023-04-06T14:29:09;102050.86;;;10.60;47.31
55550;BME280;41397;49.972;18.944;2023-04-06T14:32:13;102051.05;;;10.57;47.76
55550;BME280;41397;49.972;18.944;2023-04-06T14:35:16;102051.99;;;10.42;48.20
55550;BME280;41397;49.972;18.944;2023-04-06T14:42:11;102058.83;;;10.35;48.88
55550;BME280;41397;49.972;18.944;2023-04-06T14:45:22;102062.89;;;10.28;48.85
55550;BME280;41397;49.972;18.944;2023-04-06T15:09:39;102053.07;;;9.93;50.49
55550;BME280;41397;49.972;18.944;2023-04-06T15:12:41;102047.07;;;9.87;50.33
55550;BME280;41397;49.972;18.944;2023-04-06T15:15:43;102055.64;;;9.81;50.90
55550;BME280;41397;49.972;18.944;2023-04-06T15:18:46;102055.12;;;9.58;51.25
55550;BME280;41397;49.972;18.944;2023-04-06T15:25:22;102058.05;;;9.55;51.71
55550;BME280;41397;49.972;18.944;2023-04-06T15:28:25;102059.09;;;9.52;51.60
55550;BME280;41397;49.972;18.944;2023-04-06T15:31:28;102056.43;;;9.51;51.92
55550;BME280;41397;49.972;18.944;2023-04-06T15:34:37;102052.83;;;9.50;52.35
55550;BME280;41397;49.972;18.944;2023-04-06T15:37:43;102058.36;;;9.49;52.14
55550;BME280;41397;49.972;18.944;2023-04-06T15:40:48;102058.54;;;9.46;51.68
55550;BME280;41397;49.972;18.944;2023-04-06T15:43:51;102054.23;;;9.42;52.57
55550;BME280;41397;49.972;18.944;2023-04-06T15:54:04;102056.52;;;9.33;53.21
55550;BME280;41397;49.972;18.944;2023-04-06T15:57:23;102061.01;;;9.34;53.21
55550;BME280;41397;49.972;18.944;2023-04-06T16:00:53;102061.18;;;9.31;54.04
55550;BME280;41397;49.972;18.944;2023-04-06T16:04:25;102054.91;;;9.29;53.74
55550;BME280;41397;49.972;18.944;2023-04-06T16:07:44;102055.09;;;9.26;53.78
55550;BME280;41397;49.972;18.944;2023-04-06T16:10:58;102059.15;;;9.35;60.76
55550;BME280;41397;49.972;18.944;2023-04-06T16:14:03;102059.35;;;9.48;55.68
55550;BME280;41397;49.972;18.944;2023-04-06T16:17:05;102055.02;;;9.60;55.80
55550;BME280;41397;49.972;18.944;2023-04-06T16:20:07;102057.85;;;9.74;58.26
55550;BME280;41397;49.972;18.944;2023-04-06T16:23:18;102055.80;;;9.93;59.87
55550;BME280;41397;49.972;18.944;2023-04-06T16:26:28;102062.81;;;10.13;57.28
55550;BME280;41397;49.972;18.944;2023-04-06T16:29:34;102052.83;;;10.28;58.20
55550;BME280;41397;49.972;18.944;2023-04-06T16:33:05;102056.77;;;10.38;53.65
55550;BME280;41397;49.972;18.944;2023-04-06T16:36:12;102056.55;;;10.27;52.48
55550;BME280;41397;49.972;18.944;2023-04-06T16:39:26;102063.80;;;10.12;51.63
55550;BME280;41397;49.972;18.944;2023-04-06T16:42:33;102061.09;;;9.96;52.07
55550;BME280;41397;49.972;18.944;2023-04-06T16:45:40;102061.98;;;9.81;52.61
55550;BME280;41397;49.972;18.944;2023-04-06T16:48:45;102058.48;;;9.63;53.34
55550;BME280;41397;49.972;18.944;2023-04-06T16:52:05;102064.88;;;9.46;54.20
55550;BME280;41397;49.972;18.944;2023-04-06T16:55:07;102061.11;;;9.33;54.78
55550;BME280;41397;49.972;18.944;2023-04-06T16:58:09;102065.02;;;9.27;55.20
55550;BME280;41397;49.972;18.944;2023-04-06T17:01:21;102055.45;;;9.20;55.20
55550;BME280;41397;49.972;18.944;2023-04-06T17:04:22;102049.36;;;9.15;55.83
55550;BME280;41397;49.972;18.944;2023-04-06T17:07:24;102061.32;;;9.13;55.65
55550;BME280;41397;49.972;18.944;2023-04-06T17:10:35;102062.30;;;9.11;56.21
55550;BME280;41397;49.972;18.944;2023-04-06T17:13:37;102061.49;;;9.09;56.33
55550;BME280;41397;49.972;18.944;2023-04-06T17:16:42;102066.95;;;9.09;56.36
55550;BME280;41397;49.972;18.944;2023-04-06T17:19:47;102064.58;;;9.03;56.72
55550;BME280;41397;49.972;18.944;2023-04-06T17:23:09;102065.69;;;8.99;56.63
55550;BME280;41397;49.972;18.944;2023-04-06T17:26:25;102062.34;;;8.94;57.15
55550;BME280;41397;49.972;18.944;2023-04-06T17:29:38;102074.29;;;8.92;56.83
55550;BME280;41397;49.972;18.944;2023-04-06T17:32:40;102073.58;;;8.88;56.69
55550;BME280;41397;49.972;18.944;2023-04-06T17:35:52;102087.29;;;8.86;56.93
55550;BME280;41397;49.972;18.944;2023-04-06T17:39:02;102086.76;;;8.80;57.03
55550;BME280;41397;49.972;18.944;2023-04-06T17:42:11;102086.45;;;8.69;57.55
55550;BME280;41397;49.972;18.944;2023-04-06T17:45:13;102093.92;;;8.65;56.55
55550;BME280;41397;49.972;18.944;2023-04-06T17:48:15;102095.68;;;8.66;57.88
55550;BME280;41397;49.972;18.944;2023-04-06T17:51:25;102092.31;;;8.61;57.57
55550;BME280;41397;49.972;18.944;2023-04-06T17:54:37;102088.70;;;8.60;57.39
55550;BME280;41397;49.972;18.944;2023-04-06T17:57:38;102089.98;;;8.53;57.35
55550;BME280;41397;49.972;18.944;2023-04-06T18:00:44;102092.70;;;8.53;57.35
55550;BME280;41397;49.972;18.944;2023-04-06T18:03:46;102091.02;;;8.51;58.05
55550;BME280;41397;49.972;18.944;2023-04-06T18:06:53;102087.41;;;8.50;58.35
55550;BME280;41397;49.972;18.944;2023-04-06T18:09:54;102084.70;;;8.50;58.75
55550;BME280;41397;49.972;18.944;2023-04-06T18:12:59;102089.26;;;8.50;58.71
55550;BME280;41397;49.972;18.944;2023-04-06T18:16:01;102094.79;;;8.48;58.53
55550;BME280;41397;49.972;18.944;2023-04-06T18:19:08;102071.61;;;8.39;58.84
55550;BME280;41397;49.972;18.944;2023-04-06T18:22:10;102082.94;;;8.49;58.67
55550;BME280;41397;49.972;18.944;2023-04-06T18:25:16;102085.56;;;8.51;58.59
55550;BME280;41397;49.972;18.944;2023-04-06T18:28:20;102079.34;;;8.49;59.17
55550;BME280;41397;49.972;18.944;2023-04-06T18:31:24;102089.26;;;8.50;58.71
55550;BME280;41397;49.972;18.944;2023-04-06T18:38:15;102090.25;;;8.49;58.91
55550;BME280;41397;49.972;18.944;2023-04-06T18:41:28;102090.38;;;8.45;59.07
55550;BME280;41397;49.972;18.944;2023-04-06T18:44:52;102085.02;;;8.44;58.88
55550;BME280;41397;49.972;18.944;2023-04-06T19:02:03;102088.48;;;8.29;59.21
55550;BME280;41397;49.972;18.944;2023-04-06T19:05:24;102087.84;;;8.23;59.60
55550;BME280;41397;49.972;18.944;2023-04-06T19:08:27;102089.80;;;8.21;59.80
55550;BME280;41397;49.972;18.944;2023-04-06T19:11:30;102085.27;;;8.20;60.04
55550;BME280;41397;49.972;18.944;2023-04-06T19:14:39;102091.54;;;8.22;60.05
55550;BME280;41397;49.972;18.944;2023-04-06T19:17:42;102086.09;;;8.22;60.11
55550;BME280;41397;49.972;18.944;2023-04-06T19:20:44;102092.52;;;8.21;60.07
55550;BME280;41397;49.972;18.944;2023-04-06T19:23:48;102082.38;;;8.23;60.06
55550;BME280;41397;49.972;18.944;2023-04-06T19:26:52;102079.66;;;8.23;60.13
55550;BME280;41397;49.972;18.944;2023-04-06T19:29:54;102076.88;;;8.25;60.28
55550;BME280;41397;49.972;18.944;2023-04-06T19:32:56;102072.40;;;8.24;60.21
55550;BME280;41397;49.972;18.944;2023-04-06T19:35:58;102071.59;;;8.22;60.18
55550;BME280;41397;49.972;18.944;2023-04-06T19:39:00;102061.63;;;8.21;60.35